La Cassidaigne — FT7120 — position and weather

sailwx.info

Track history (hours):
 
Tides and Currents Weather Stations Pressure Air Temp Water Temp Dewpoint Dewpoint Depression Visibility Wind Speed Wind Dir Waves Ship Positions

La Cassidaigne

Last reported at 2018-Apr-20 17:11 UTC. Time now 2018-Apr-21 06:09 UTC.
Position N 43°24' E 004°59'.

Length 16 m; draft 1 m.

Type: Ship. MMSI: 227005760.

Date/timePositionNaut miles runAvg speedWind from/ knotsBaromVisibWave heightAir tempDewpointWater temp
2018-Apr-20 17:11N 43°24' E 004°59'0 1.1
2018-Apr-20 16:59N 43°24' E 004°59'0 0.4
2018-Apr-20 16:28N 43°24' E 004°59'0 0.0
2018-Apr-20 15:58N 43°24' E 004°59'0 0.0
2018-Apr-20 15:28N 43°24' E 004°59'0 0.0
2018-Apr-20 14:52N 43°24' E 004°59'0 0.0
2018-Apr-20 14:30N 43°24' E 004°59'1 1.8
2018-Apr-20 14:00N 43°23' E 004°59'1 1.7
2018-Apr-20 13:29N 43°24' E 004°59'0 0.0
2018-Apr-20 12:59N 43°24' E 004°59'1 2.3
2018-Apr-20 12:29N 43°24' E 004°58'1 2.4
2018-Apr-20 12:00N 43°24' E 004°59'0 0.0
2018-Apr-20 11:30N 43°24' E 004°59'0 0.0
2018-Apr-20 10:57N 43°24' E 004°59'0 0.0
2018-Apr-20 10:21N 43°24' E 004°59'0 0.0
2018-Apr-20 09:57N 43°24' E 004°59'2 3.6
2018-Apr-20 09:27N 43°22' E 004°59'2 3.4
2018-Apr-20 08:56N 43°24' E 004°59'3 5.3
2018-Apr-20 08:27N 43°22' E 004°60'3 5.7
2018-Apr-20 08:00N 43°24' E 004°59'2 3.6
2018-Apr-20 07:30N 43°22' E 004°59'2 3.4
2018-Apr-20 06:59N 43°24' E 004°59'0 0.0
2018-Apr-19 16:07N 43°24' E 004°59'1 8.0
2018-Apr-19 16:00N 43°23' E 004°59'1 0.1
2018-Apr-19 05:37N 43°22' E 004°58'218.8
2018-Apr-19 05:30N 43°24' E 004°59'0 0.0
2018-Apr-19 04:59N 43°24' E 004°59'0 0.0
2018-Apr-17 17:11N 43°24' E 004°59'1 4.4
2018-Apr-17 16:53N 43°23' E 004°58'1 0.6
2018-Apr-17 14:29N 43°24' E 004°59'0 0.0
2018-Apr-17 13:59N 43°24' E 004°59'0 0.0
2018-Apr-17 13:29N 43°24' E 004°59'2 2.1
2018-Apr-17 12:43N 43°23' E 004°58'2 6.6
2018-Apr-17 12:28N 43°24' E 004°59'1 1.8
2018-Apr-17 11:51N 43°24' E 004°58'1 2.7
2018-Apr-17 11:30N 43°24' E 004°59'0 0.1
2018-Apr-17 10:23N 43°24' E 004°59'0 0.0
2018-Apr-17 09:53N 43°24' E 004°59'0 0.0
2018-Apr-17 09:23N 43°24' E 004°59'0 0.0
2018-Apr-17 08:53N 43°24' E 004°59'0 0.0
2018-Apr-17 08:29N 43°24' E 004°59'0 0.0
2018-Apr-17 07:59N 43°24' E 004°59'0 0.0
2018-Apr-17 07:29N 43°24' E 004°59'0 0.0
2018-Apr-17 06:59N 43°24' E 004°59'0 0.0
2018-Apr-16 18:09N 43°24' E 004°59'1 3.8
2018-Apr-16 17:54N 43°24' E 004°58'1 2.2
2018-Apr-16 17:28N 43°24' E 004°59'0 0.0
2018-Apr-16 16:58N 43°24' E 004°59'0 0.0
2018-Apr-16 16:10N 43°24' E 004°59'0 0.0
2018-Apr-16 15:58N 43°24' E 004°59'0 0.0
2018-Apr-16 15:28N 43°24' E 004°59'0 0.0
2018-Apr-16 14:58N 43°24' E 004°59'0 0.4
2018-Apr-16 14:30N 43°24' E 004°59'0 0.1
2018-Apr-16 12:36N 43°24' E 004°59'0 0.0
2018-Apr-16 12:24N 43°24' E 004°59'2 3.9
2018-Apr-16 11:57N 43°22' E 004°59'3 5.4
2018-Apr-16 11:25N 43°25' E 004°57'2 4.9
2018-Apr-16 11:01N 43°24' E 004°59'0 0.0
2018-Apr-16 10:25N 43°24' E 004°59'0 0.0
2018-Apr-16 09:57N 43°24' E 004°59'0 0.0
2018-Apr-16 09:27N 43°24' E 004°59'0 0.0
2018-Apr-16 08:57N 43°24' E 004°59'0 0.0
2018-Apr-16 08:27N 43°24' E 004°59'0 0.2
2018-Apr-16 08:00N 43°24' E 004°59'2 4.7
2018-Apr-16 07:30N 43°22' E 004°59'2 4.5
2018-Apr-16 06:58N 43°24' E 004°59'1 1.7
2018-Apr-16 06:14N 43°23' E 004°59'1 0.0
2018-Apr-14 15:00N 43°24' E 004°59'0 0.0
2018-Apr-14 14:30N 43°24' E 004°59'0 0.0
2018-Apr-14 13:55N 43°24' E 004°59'0 0.0
2018-Apr-14 13:25N 43°24' E 004°59'0 0.0
2018-Apr-14 12:55N 43°24' E 004°59'0 0.0
2018-Apr-14 12:25N 43°24' E 004°59'0 0.0
2018-Apr-14 11:55N 43°24' E 004°59'0 0.0
2018-Apr-14 11:25N 43°24' E 004°59'0 0.0
2018-Apr-14 10:55N 43°24' E 004°59'0 0.0
2018-Apr-14 10:25N 43°24' E 004°59'0 0.0
2018-Apr-14 09:55N 43°24' E 004°59'0 0.0
2018-Apr-14 09:25N 43°24' E 004°59'0 0.0
2018-Apr-14 08:55N 43°24' E 004°59'0 0.0
2018-Apr-14 08:25N 43°24' E 004°59'0 0.0
2018-Apr-14 07:55N 43°24' E 004°59'0 0.0
2018-Apr-14 07:19N 43°24' E 004°59'0 0.0
2018-Apr-14 06:55N 43°24' E 004°59'0 0.0
2018-Apr-14 06:28N 43°24' E 004°59'1 2.0
2018-Apr-14 05:50N 43°24' E 004°58'1 3.9
2018-Apr-14 05:30N 43°24' E 004°59'1 1.8
2018-Apr-14 05:00N 43°24' E 004°58'1 0.1
2018-Apr-13 17:42N 43°24' E 004°59'1 2.7
2018-Apr-13 17:11N 43°24' E 004°58'1 5.7
2018-Apr-13 16:57N 43°24' E 004°59'0 0.0
2018-Apr-13 16:27N 43°24' E 004°59'0 0.0
2018-Apr-13 15:51N 43°24' E 004°59'0 0.0
2018-Apr-13 15:27N 43°24' E 004°59'0 0.2
2018-Apr-13 15:00N 43°24' E 004°59'0 0.2
2018-Apr-13 14:29N 43°24' E 004°59'0 0.0
2018-Apr-13 13:59N 43°24' E 004°59'0 0.0
2018-Apr-13 13:29N 43°24' E 004°59'2 2.1
2018-Apr-13 12:38N 43°23' E 004°57'213.4
2018-Apr-13 12:30N 43°24' E 004°59'0 0.1
2018-Apr-13 11:59N 43°24' E 004°59'0 0.0
2018-Apr-13 11:29N 43°24' E 004°59'0 0.9
2018-Apr-13 11:00N 43°24' E 004°59'0 0.7
2018-Apr-13 10:26N 43°24' E 004°59'1 0.8
2018-Apr-13 09:48N 43°24' E 004°59'1 1.6
2018-Apr-13 09:28N 43°24' E 004°59'0 0.0
2018-Apr-13 08:58N 43°24' E 004°59'0 0.0
2018-Apr-13 08:28N 43°24' E 004°59'0 0.0
2018-Apr-13 07:58N 43°24' E 004°59'0 0.0
2018-Apr-13 07:28N 43°24' E 004°59'0 0.0
2018-Apr-13 06:58N 43°24' E 004°59'0 0.0
2018-Apr-12 17:12N 43°24' E 004°59'1 1.4
2018-Apr-12 16:42N 43°24' E 004°59'1 1.8
2018-Apr-12 16:18N 43°24' E 004°59'0 0.0
2018-Apr-12 16:00N 43°24' E 004°59'0 0.0
2018-Apr-12 15:29N 43°24' E 004°59'1 2.0
2018-Apr-12 15:00N 43°24' E 004°58'1 1.9
2018-Apr-12 14:30N 43°24' E 004°59'0 0.0
2018-Apr-12 13:54N 43°24' E 004°59'1 2.4
2018-Apr-12 13:27N 43°24' E 004°58'0 0.4
2018-Apr-12 12:33N 43°24' E 004°58'0 1.5
2018-Apr-12 12:24N 43°23' E 004°58'1 3.2
2018-Apr-12 12:00N 43°24' E 004°59'0 0.0
2018-Apr-12 11:27N 43°24' E 004°59'0 0.0
2018-Apr-12 11:00N 43°24' E 004°59'0 0.0
2018-Apr-12 10:27N 43°24' E 004°59'0 0.0
2018-Apr-12 10:00N 43°24' E 004°59'0 0.0
2018-Apr-12 09:30N 43°24' E 004°59'1 0.8
2018-Apr-12 08:37N 43°24' E 004°59'1 6.8
2018-Apr-12 08:30N 43°24' E 004°59'0 0.2
2018-Apr-12 08:00N 43°24' E 004°59'0 0.0
2018-Apr-12 07:27N 43°24' E 004°59'0 0.0
2018-Apr-12 06:57N 43°24' E 004°59'0 0.0
2018-Apr-12 06:27N 43°24' E 004°59'1 1.4
2018-Apr-12 05:47N 43°24' E 004°58'1 4.0
2018-Apr-12 05:30N 43°24' E 004°60'0 0.0
2018-Apr-10 18:54N 43°24' E 004°60'2 2.1
2018-Apr-10 18:10N 43°23' E 004°58'2 8.8
2018-Apr-10 18:00N 43°24' E 004°60'0 0.0
2018-Apr-10 17:30N 43°24' E 004°60'  
Track history (hours):
 
Tides and Currents Weather Stations Pressure Air Temp Water Temp Dewpoint Dewpoint Depression Visibility Wind Speed Wind Dir Waves Ship Positions

La Cassidaigne

Last reported at 2018-Apr-20 17:11 UTC. Time now 2018-Apr-21 06:09 UTC.
Position N 43°24' E 004°59'.

Length 16 m; draft 1 m.

Type: Ship. MMSI: 227005760.

Date/timePositionNaut miles runAvg speedWind from/ knotsBaromVisibWave heightAir tempDewpointWater temp
2018-Apr-20 17:11N 43°24' E 004°59'0 1.1
2018-Apr-20 16:59N 43°24' E 004°59'0 0.4
2018-Apr-20 16:28N 43°24' E 004°59'0 0.0
2018-Apr-20 15:58N 43°24' E 004°59'0 0.0
2018-Apr-20 15:28N 43°24' E 004°59'0 0.0
2018-Apr-20 14:52N 43°24' E 004°59'0 0.0
2018-Apr-20 14:30N 43°24' E 004°59'1 1.8
2018-Apr-20 14:00N 43°23' E 004°59'1 1.7
2018-Apr-20 13:29N 43°24' E 004°59'0 0.0
2018-Apr-20 12:59N 43°24' E 004°59'1 2.3
2018-Apr-20 12:29N 43°24' E 004°58'1 2.4
2018-Apr-20 12:00N 43°24' E 004°59'0 0.0
2018-Apr-20 11:30N 43°24' E 004°59'0 0.0
2018-Apr-20 10:57N 43°24' E 004°59'0 0.0
2018-Apr-20 10:21N 43°24' E 004°59'0 0.0
2018-Apr-20 09:57N 43°24' E 004°59'2 3.6
2018-Apr-20 09:27N 43°22' E 004°59'2 3.4
2018-Apr-20 08:56N 43°24' E 004°59'3 5.3
2018-Apr-20 08:27N 43°22' E 004°60'3 5.7
2018-Apr-20 08:00N 43°24' E 004°59'2 3.6
2018-Apr-20 07:30N 43°22' E 004°59'2 3.4
2018-Apr-20 06:59N 43°24' E 004°59'0 0.0
2018-Apr-19 16:07N 43°24' E 004°59'1 8.0
2018-Apr-19 16:00N 43°23' E 004°59'1 0.1
2018-Apr-19 05:37N 43°22' E 004°58'218.8
2018-Apr-19 05:30N 43°24' E 004°59'0 0.0
2018-Apr-19 04:59N 43°24' E 004°59'0 0.0
2018-Apr-17 17:11N 43°24' E 004°59'1 4.4
2018-Apr-17 16:53N 43°23' E 004°58'1 0.6
2018-Apr-17 14:29N 43°24' E 004°59'0 0.0
2018-Apr-17 13:59N 43°24' E 004°59'0 0.0
2018-Apr-17 13:29N 43°24' E 004°59'2 2.1
2018-Apr-17 12:43N 43°23' E 004°58'2 6.6
2018-Apr-17 12:28N 43°24' E 004°59'1 1.8
2018-Apr-17 11:51N 43°24' E 004°58'1 2.7
2018-Apr-17 11:30N 43°24' E 004°59'0 0.1
2018-Apr-17 10:23N 43°24' E 004°59'0 0.0
2018-Apr-17 09:53N 43°24' E 004°59'0 0.0
2018-Apr-17 09:23N 43°24' E 004°59'0 0.0
2018-Apr-17 08:53N 43°24' E 004°59'0 0.0
2018-Apr-17 08:29N 43°24' E 004°59'0 0.0
2018-Apr-17 07:59N 43°24' E 004°59'0 0.0
2018-Apr-17 07:29N 43°24' E 004°59'0 0.0
2018-Apr-17 06:59N 43°24' E 004°59'0 0.0
2018-Apr-16 18:09N 43°24' E 004°59'1 3.8
2018-Apr-16 17:54N 43°24' E 004°58'1 2.2
2018-Apr-16 17:28N 43°24' E 004°59'0 0.0
2018-Apr-16 16:58N 43°24' E 004°59'0 0.0
2018-Apr-16 16:10N 43°24' E 004°59'0 0.0
2018-Apr-16 15:58N 43°24' E 004°59'0 0.0
2018-Apr-16 15:28N 43°24' E 004°59'0 0.0
2018-Apr-16 14:58N 43°24' E 004°59'0 0.4
2018-Apr-16 14:30N 43°24' E 004°59'0 0.1
2018-Apr-16 12:36N 43°24' E 004°59'0 0.0
2018-Apr-16 12:24N 43°24' E 004°59'2 3.9
2018-Apr-16 11:57N 43°22' E 004°59'3 5.4
2018-Apr-16 11:25N 43°25' E 004°57'2 4.9
2018-Apr-16 11:01N 43°24' E 004°59'0 0.0
2018-Apr-16 10:25N 43°24' E 004°59'0 0.0
2018-Apr-16 09:57N 43°24' E 004°59'0 0.0
2018-Apr-16 09:27N 43°24' E 004°59'0 0.0
2018-Apr-16 08:57N 43°24' E 004°59'0 0.0
2018-Apr-16 08:27N 43°24' E 004°59'0 0.2
2018-Apr-16 08:00N 43°24' E 004°59'2 4.7
2018-Apr-16 07:30N 43°22' E 004°59'2 4.5
2018-Apr-16 06:58N 43°24' E 004°59'1 1.7
2018-Apr-16 06:14N 43°23' E 004°59'1 0.0
2018-Apr-14 15:00N 43°24' E 004°59'0 0.0
2018-Apr-14 14:30N 43°24' E 004°59'0 0.0
2018-Apr-14 13:55N 43°24' E 004°59'0 0.0
2018-Apr-14 13:25N 43°24' E 004°59'0 0.0
2018-Apr-14 12:55N 43°24' E 004°59'0 0.0
2018-Apr-14 12:25N 43°24' E 004°59'0 0.0
2018-Apr-14 11:55N 43°24' E 004°59'0 0.0
2018-Apr-14 11:25N 43°24' E 004°59'0 0.0
2018-Apr-14 10:55N 43°24' E 004°59'0 0.0
2018-Apr-14 10:25N 43°24' E 004°59'0 0.0
2018-Apr-14 09:55N 43°24' E 004°59'0 0.0
2018-Apr-14 09:25N 43°24' E 004°59'0 0.0
2018-Apr-14 08:55N 43°24' E 004°59'0 0.0
2018-Apr-14 08:25N 43°24' E 004°59'0 0.0
2018-Apr-14 07:55N 43°24' E 004°59'0 0.0
2018-Apr-14 07:19N 43°24' E 004°59'0 0.0
2018-Apr-14 06:55N 43°24' E 004°59'0 0.0
2018-Apr-14 06:28N 43°24' E 004°59'1 2.0
2018-Apr-14 05:50N 43°24' E 004°58'1 3.9
2018-Apr-14 05:30N 43°24' E 004°59'1 1.8
2018-Apr-14 05:00N 43°24' E 004°58'1 0.1
2018-Apr-13 17:42N 43°24' E 004°59'1 2.7
2018-Apr-13 17:11N 43°24' E 004°58'1 5.7
2018-Apr-13 16:57N 43°24' E 004°59'0 0.0
2018-Apr-13 16:27N 43°24' E 004°59'0 0.0
2018-Apr-13 15:51N 43°24' E 004°59'0 0.0
2018-Apr-13 15:27N 43°24' E 004°59'0 0.2
2018-Apr-13 15:00N 43°24' E 004°59'0 0.2
2018-Apr-13 14:29N 43°24' E 004°59'0 0.0
2018-Apr-13 13:59N 43°24' E 004°59'0 0.0
2018-Apr-13 13:29N 43°24' E 004°59'2 2.1
2018-Apr-13 12:38N 43°23' E 004°57'213.4
2018-Apr-13 12:30N 43°24' E 004°59'0 0.1
2018-Apr-13 11:59N 43°24' E 004°59'0 0.0
2018-Apr-13 11:29N 43°24' E 004°59'0 0.9
2018-Apr-13 11:00N 43°24' E 004°59'0 0.7
2018-Apr-13 10:26N 43°24' E 004°59'1 0.8
2018-Apr-13 09:48N 43°24' E 004°59'1 1.6
2018-Apr-13 09:28N 43°24' E 004°59'0 0.0
2018-Apr-13 08:58N 43°24' E 004°59'0 0.0
2018-Apr-13 08:28N 43°24' E 004°59'0 0.0
2018-Apr-13 07:58N 43°24' E 004°59'0 0.0
2018-Apr-13 07:28N 43°24' E 004°59'0 0.0
2018-Apr-13 06:58N 43°24' E 004°59'0 0.0
2018-Apr-12 17:12N 43°24' E 004°59'1 1.4
2018-Apr-12 16:42N 43°24' E 004°59'1 1.8
2018-Apr-12 16:18N 43°24' E 004°59'0 0.0
2018-Apr-12 16:00N 43°24' E 004°59'0 0.0
2018-Apr-12 15:29N 43°24' E 004°59'1 2.0
2018-Apr-12 15:00N 43°24' E 004°58'1 1.9
2018-Apr-12 14:30N 43°24' E 004°59'0 0.0
2018-Apr-12 13:54N 43°24' E 004°59'1 2.4
2018-Apr-12 13:27N 43°24' E 004°58'0 0.4
2018-Apr-12 12:33N 43°24' E 004°58'0 1.5
2018-Apr-12 12:24N 43°23' E 004°58'1 3.2
2018-Apr-12 12:00N 43°24' E 004°59'0 0.0
2018-Apr-12 11:27N 43°24' E 004°59'0 0.0
2018-Apr-12 11:00N 43°24' E 004°59'0 0.0
2018-Apr-12 10:27N 43°24' E 004°59'0 0.0
2018-Apr-12 10:00N 43°24' E 004°59'0 0.0
2018-Apr-12 09:30N 43°24' E 004°59'1 0.8
2018-Apr-12 08:37N 43°24' E 004°59'1 6.8
2018-Apr-12 08:30N 43°24' E 004°59'0 0.2
2018-Apr-12 08:00N 43°24' E 004°59'0 0.0
2018-Apr-12 07:27N 43°24' E 004°59'0 0.0
2018-Apr-12 06:57N 43°24' E 004°59'0 0.0
2018-Apr-12 06:27N 43°24' E 004°59'1 1.4
2018-Apr-12 05:47N 43°24' E 004°58'1 4.0
2018-Apr-12 05:30N 43°24' E 004°60'0 0.0
2018-Apr-10 18:54N 43°24' E 004°60'2 2.1
2018-Apr-10 18:10N 43°23' E 004°58'2 8.8
2018-Apr-10 18:00N 43°24' E 004°60'0 0.0
2018-Apr-10 17:30N 43°24' E 004°60'  

Dump ship's entire track history